Time;durP1;ratioP1;P1;durP2;ratioP2;P2;SDS_P1;SDS_P2;PMS_P1;PMS_P2;Temp;Humidity;BMP_temperature;BMP_pressure;BME280_temperature;BME280_humidity;BME280_pressure;Samples;Min_cycle;Max_cycle;Signal;HPM_P1;HPM_P2
2022/07/19 00:00:08;;;;;;;10.03;6.27;;;16.20;99.90;;;;;;5093092;28;21019;-75
2022/07/19 00:02:34;;;;;;;6.20;5.57;;;16.20;99.90;;;;;;5092387;28;20400;-68
2022/07/19 00:05:00;;;;;;;5.87;5.27;;;16.20;99.90;;;;;;5092892;28;20930;-69
2022/07/19 00:07:26;;;;;;;9.40;5.97;;;16.20;99.90;;;;;;5092948;28;20158;-68
2022/07/19 00:09:51;;;;;;;8.13;6.03;;;16.10;99.90;;;;;;5096550;28;20185;-68
2022/07/19 00:12:17;;;;;;;5.97;5.10;;;16.10;99.90;;;;;;5095855;28;20248;-76
2022/07/19 00:14:43;;;;;;;6.60;5.00;;;16.10;99.90;;;;;;5096354;28;20507;-68
2022/07/19 00:17:08;;;;;;;10.73;5.57;;;16.00;99.90;;;;;;5096428;28;20173;-76
2022/07/19 00:19:34;;;;;;;10.13;5.60;;;16.00;99.90;;;;;;5096247;28;20246;-76
2022/07/19 00:22:00;;;;;;;9.07;6.20;;;16.00;99.90;;;;;;5096308;28;20162;-76
2022/07/19 00:24:26;;;;;;;8.23;5.50;;;15.90;99.90;;;;;;5095231;28;20177;-68
2022/07/19 00:26:51;;;;;;;7.03;4.93;;;15.80;99.90;;;;;;5096122;28;20162;-68
2022/07/19 00:29:17;;;;;;;5.47;4.97;;;15.80;99.90;;;;;;5096116;28;20396;-68
2022/07/19 00:31:43;;;;;;;9.70;5.97;;;15.80;99.90;;;;;;5095943;28;20184;-76
2022/07/19 00:34:08;;;;;;;6.23;5.13;;;15.70;99.90;;;;;;5093983;28;20250;-76
2022/07/19 00:36:34;;;;;;;6.70;4.77;;;15.70;99.90;;;;;;5096172;28;20177;-68
2022/07/19 00:39:00;;;;;;;6.27;5.60;;;15.70;99.90;;;;;;5095942;28;20571;-75
2022/07/19 00:41:25;;;;;;;5.63;5.03;;;15.70;99.90;;;;;;5095363;28;20172;-69
2022/07/19 00:43:51;;;;;;;9.60;5.40;;;15.60;99.90;;;;;;5095080;28;20243;-76
2022/07/19 00:46:20;;;;;;;5.80;4.70;;;15.60;99.90;;;;;;5095799;28;20197;-68
2022/07/19 00:48:47;;;;;;;6.33;5.33;;;15.60;99.90;;;;;;5095748;28;20162;-68
2022/07/19 00:51:15;;;;;;;10.10;6.67;;;15.60;99.90;;;;;;5095833;28;20425;-68
2022/07/19 00:53:42;;;;;;;5.30;4.80;;;15.60;99.90;;;;;;5094858;28;20888;-76
2022/07/19 00:56:09;;;;;;;6.90;5.37;;;15.50;99.90;;;;;;5095767;28;20535;-76
2022/07/19 00:58:36;;;;;;;6.33;4.90;;;15.50;99.90;;;;;;5095725;28;20456;-76
2022/07/19 01:01:04;;;;;;;6.80;5.87;;;15.50;99.90;;;;;;5095127;28;20429;-73
2022/07/19 01:03:30;;;;;;;6.53;5.77;;;15.50;99.90;;;;;;5094601;28;20403;-76
2022/07/19 01:05:55;;;;;;;6.20;4.93;;;15.40;99.90;;;;;;5095313;28;20362;-76
2022/07/19 01:08:21;;;;;;;8.07;6.37;;;15.40;99.90;;;;;;5095432;28;20403;-68
2022/07/19 01:10:47;;;;;;;6.87;5.47;;;15.50;99.90;;;;;;5095317;28;20181;-67
2022/07/19 01:13:13;;;;;;;7.17;6.00;;;15.40;99.90;;;;;;5094662;28;20208;-76
2022/07/19 01:15:41;;;;;;;6.43;5.50;;;15.40;99.90;;;;;;5095414;28;20273;-76
2022/07/19 01:18:07;;;;;;;7.60;6.00;;;15.40;99.90;;;;;;5095183;28;20399;-68
2022/07/19 01:20:33;;;;;;;7.90;5.67;;;15.30;99.90;;;;;;5093951;28;20838;-75
2022/07/19 01:22:59;;;;;;;6.53;5.13;;;15.30;99.90;;;;;;5094350;28;20172;-68
2022/07/19 01:25:29;;;;;;;7.13;4.40;;;15.30;99.90;;;;;;5095015;28;20454;-68
2022/07/19 01:27:55;;;;;;;7.37;5.80;;;15.30;99.90;;;;;;5094831;28;20384;-76
2022/07/19 01:30:24;;;;;;;7.60;5.73;;;15.20;99.90;;;;;;5093671;28;20433;-76
2022/07/19 01:32:51;;;;;;;8.90;5.10;;;15.20;99.90;;;;;;5094333;28;20526;-67
2022/07/19 01:35:17;;;;;;;6.47;5.43;;;15.20;99.90;;;;;;5094792;28;20427;-68
2022/07/19 01:37:43;;;;;;;6.20;4.57;;;15.20;99.90;;;;;;5094284;28;20403;-75
2022/07/19 01:40:11;;;;;;;7.10;5.47;;;15.20;99.90;;;;;;5094527;28;20459;-75
2022/07/19 01:42:38;;;;;;;8.43;6.53;;;15.20;99.90;;;;;;5092729;28;20822;-75
2022/07/19 01:45:05;;;;;;;7.73;6.10;;;15.10;99.90;;;;;;5094818;28;20804;-76
2022/07/19 01:47:31;;;;;;;6.67;5.53;;;15.10;99.90;;;;;;5094619;28;20449;-76
2022/07/19 01:49:57;;;;;;;6.03;4.80;;;15.10;99.90;;;;;;5094523;28;20908;-76
2022/07/19 01:52:22;;;;;;;7.50;5.40;;;15.00;99.90;;;;;;5093720;28;20177;-76
2022/07/19 01:54:48;;;;;;;8.27;5.80;;;15.10;99.90;;;;;;5094420;28;20204;-70
2022/07/19 01:57:14;;;;;;;10.23;5.10;;;15.00;99.90;;;;;;5094151;28;20169;-77
2022/07/19 01:59:40;;;;;;;5.87;5.17;;;15.00;99.90;;;;;;5094229;28;20450;-76
2022/07/19 02:02:06;;;;;;;6.63;5.00;;;15.00;99.90;;;;;;5094173;28;20177;-76
2022/07/19 02:04:32;;;;;;;8.60;5.40;;;15.00;99.90;;;;;;5093755;28;20431;-76
2022/07/19 02:06:58;;;;;;;8.40;5.60;;;15.00;99.90;;;;;;5093118;28;20177;-76
2022/07/19 02:09:24;;;;;;;9.60;5.97;;;15.00;99.90;;;;;;5093130;28;20390;-68
2022/07/19 02:11:50;;;;;;;7.77;5.23;;;15.00;99.90;;;;;;5094288;28;20900;-68
2022/07/19 02:14:16;;;;;;;5.77;5.17;;;14.90;99.90;;;;;;5092849;28;20419;-68
2022/07/19 02:16:43;;;;;;;7.23;5.47;;;14.90;99.90;;;;;;5094109;28;20403;-76
2022/07/19 02:19:08;;;;;;;6.10;5.50;;;14.90;99.90;;;;;;5094029;28;20880;-74
2022/07/19 02:21:34;;;;;;;4.57;4.13;;;14.90;99.90;;;;;;5094147;28;20408;-77
2022/07/19 02:24:01;;;;;;;5.47;4.77;;;14.90;99.90;;;;;;5093166;28;20246;-67
2022/07/19 02:26:27;;;;;;;7.67;5.43;;;14.80;99.90;;;;;;5093890;28;20765;-68
2022/07/19 02:28:53;;;;;;;6.00;5.40;;;14.80;99.90;;;;;;5094019;28;20423;-76
2022/07/19 02:31:19;;;;;;;9.23;5.73;;;14.80;99.90;;;;;;5093254;28;20399;-77
2022/07/19 02:33:45;;;;;;;6.53;5.23;;;14.80;99.90;;;;;;5093071;28;20194;-76
2022/07/19 02:36:11;;;;;;;13.30;9.90;;;14.80;99.90;;;;;;5093738;28;20405;-76
2022/07/19 02:38:37;;;;;;;10.03;7.83;;;14.70;99.90;;;;;;5093659;28;20412;-76
2022/07/19 02:41:03;;;;;;;10.50;6.90;;;14.70;99.90;;;;;;5093560;28;20345;-76
2022/07/19 02:43:28;;;;;;;9.40;6.10;;;14.70;99.90;;;;;;5092932;28;20299;-67
2022/07/19 02:45:54;;;;;;;5.60;5.00;;;14.70;99.90;;;;;;5093338;28;20174;-75
2022/07/19 02:48:20;;;;;;;6.90;5.13;;;14.70;99.90;;;;;;5093426;28;20173;-68
2022/07/19 02:50:46;;;;;;;7.23;5.27;;;14.70;99.90;;;;;;5093452;28;20169;-67
2022/07/19 02:53:12;;;;;;;10.10;5.60;;;14.70;99.90;;;;;;5092882;28;20188;-76
2022/07/19 02:55:37;;;;;;;6.50;5.20;;;14.60;99.90;;;;;;5092476;28;20959;-75
2022/07/19 02:58:04;;;;;;;5.13;4.10;;;14.60;99.90;;;;;;5093633;28;20173;-76
2022/07/19 03:00:30;;;;;;;6.80;5.17;;;14.60;99.90;;;;;;5093518;28;20688;-76
2022/07/19 03:03:43;;;;;;;5.77;5.03;;;14.60;99.90;;;;;;5091598;28;20756;-68
2022/07/19 03:05:44;;;;;;;9.53;5.40;;;14.60;99.90;;;;;;5093304;28;20848;-67
2022/07/19 03:08:10;;;;;;;6.90;5.00;;;14.50;99.90;;;;;;5093593;28;20466;-67
2022/07/19 03:10:36;;;;;;;9.77;5.40;;;14.50;99.90;;;;;;5093221;28;20434;-75
2022/07/19 03:13:02;;;;;;;7.00;5.53;;;14.50;99.90;;;;;;5092669;28;20412;-68
2022/07/19 03:15:27;;;;;;;5.97;4.73;;;14.40;99.90;;;;;;5093361;28;20543;-67
2022/07/19 03:17:53;;;;;;;8.03;6.63;;;14.40;99.90;;;;;;5092363;28;20165;-76
2022/07/19 03:20:19;;;;;;;8.80;5.43;;;14.40;99.90;;;;;;5093392;28;20692;-72
2022/07/19 03:22:44;;;;;;;7.90;6.10;;;14.40;99.90;;;;;;5091178;28;20260;-76
2022/07/19 03:25:10;;;;;;;7.03;5.83;;;14.40;99.90;;;;;;5093228;28;20185;-67
2022/07/19 03:27:36;;;;;;;6.63;5.47;;;14.40;99.90;;;;;;5093368;28;20169;-67
2022/07/19 03:30:02;;;;;;;6.63;5.97;;;14.40;99.90;;;;;;5093264;28;20283;-76
2022/07/19 03:32:27;;;;;;;6.83;6.17;;;14.40;99.90;;;;;;5092559;28;20174;-76
2022/07/19 03:34:53;;;;;;;7.27;5.33;;;14.40;99.90;;;;;;5091949;28;20414;-76
2022/07/19 03:37:19;;;;;;;4.77;4.37;;;14.40;99.90;;;;;;5093163;28;20703;-76
2022/07/19 03:39:44;;;;;;;7.47;5.40;;;14.40;99.90;;;;;;5093191;28;20577;-67
2022/07/19 03:42:10;;;;;;;7.70;5.70;;;14.40;99.90;;;;;;5092285;28;20193;-71
2022/07/19 03:44:36;;;;;;;8.70;6.00;;;14.40;99.90;;;;;;5096937;28;20600;-77
2022/07/19 03:47:01;;;;;;;5.17;4.70;;;14.40;99.90;;;;;;5096868;28;20169;-68
2022/07/19 03:49:27;;;;;;;5.77;4.60;;;14.40;99.90;;;;;;5096861;28;20177;-67
2022/07/19 03:51:53;;;;;;;8.40;5.47;;;14.40;99.90;;;;;;5095588;28;20696;-67
2022/07/19 03:54:18;;;;;;;7.10;5.27;;;14.40;99.90;;;;;;5096089;28;20189;-75
2022/07/19 03:56:44;;;;;;;6.30;4.93;;;14.40;99.90;;;;;;5096736;28;20561;-76
2022/07/19 03:59:10;;;;;;;6.23;5.03;;;14.40;99.90;;;;;;5096056;28;20218;-75
2022/07/19 04:01:37;;;;;;;7.13;5.30;;;14.50;99.90;;;;;;5096850;28;20653;-68
2022/07/19 04:04:04;;;;;;;7.17;5.07;;;14.50;99.90;;;;;;5095982;28;20181;-68
2022/07/19 04:06:30;;;;;;;6.50;4.53;;;14.50;99.90;;;;;;5096813;28;20418;-75
2022/07/19 04:08:55;;;;;;;7.23;5.50;;;14.50;99.90;;;;;;5096589;28;20382;-68
2022/07/19 04:11:21;;;;;;;10.17;4.67;;;14.50;99.90;;;;;;5096399;28;20406;-68
2022/07/19 04:13:47;;;;;;;5.80;5.27;;;14.50;99.90;;;;;;5095630;28;20193;-75
2022/07/19 04:16:13;;;;;;;5.73;5.23;;;14.60;99.90;;;;;;5096491;28;20428;-68
2022/07/19 04:18:39;;;;;;;7.53;5.50;;;14.60;99.90;;;;;;5096006;28;20169;-68
2022/07/19 04:21:05;;;;;;;8.20;5.93;;;14.60;99.90;;;;;;5096189;28;20662;-68
2022/07/19 04:23:31;;;;;;;5.63;5.13;;;14.60;99.90;;;;;;5095466;28;20162;-68
2022/07/19 04:25:57;;;;;;;7.57;5.50;;;14.70;99.90;;;;;;5096398;28;20439;-68
2022/07/19 04:28:23;;;;;;;5.67;4.97;;;14.70;99.90;;;;;;5096273;28;20439;-76
2022/07/19 04:30:49;;;;;;;5.57;5.07;;;14.70;99.90;;;;;;5096233;28;20165;-68
2022/07/19 04:33:16;;;;;;;7.67;4.60;;;14.70;99.90;;;;;;5095347;28;20491;-69
2022/07/19 04:35:42;;;;;;;4.63;4.23;;;14.80;99.90;;;;;;5095556;28;20442;-76
2022/07/19 04:38:08;;;;;;;8.40;5.40;;;14.80;99.90;;;;;;5095965;28;20407;-76
2022/07/19 04:40:34;;;;;;;6.80;5.60;;;14.80;99.90;;;;;;5095964;28;20807;-77
2022/07/19 04:42:59;;;;;;;5.67;4.30;;;14.80;99.90;;;;;;5095270;28;20201;-76
2022/07/19 04:45:25;;;;;;;9.97;6.47;;;14.90;99.90;;;;;;5095740;28;20190;-76
2022/07/19 04:47:51;;;;;;;8.47;7.43;;;14.90;99.90;;;;;;5095736;28;20165;-68
2022/07/19 04:50:16;;;;;;;10.77;8.67;;;15.00;99.90;;;;;;5094472;28;20538;-76
2022/07/19 04:52:42;;;;;;;10.63;6.80;;;15.00;99.90;;;;;;5094623;28;20170;-76
2022/07/19 04:55:08;;;;;;;8.70;6.40;;;15.10;99.90;;;;;;5095591;28;20182;-68
2022/07/19 04:57:34;;;;;;;7.63;6.10;;;15.10;99.90;;;;;;5095450;28;20173;-68
2022/07/19 04:59:59;;;;;;;7.70;6.17;;;15.20;99.90;;;;;;5095343;28;20455;-68
2022/07/19 05:02:25;;;;;;;7.93;7.13;;;15.30;99.90;;;;;;5093901;28;20170;-68
2022/07/19 05:04:51;;;;;;;10.73;6.40;;;15.30;99.90;;;;;;5095596;28;20642;-76
2022/07/19 05:07:17;;;;;;;7.00;6.30;;;15.40;99.90;;;;;;5095646;28;20193;-76
2022/07/19 05:09:43;;;;;;;10.60;7.43;;;15.40;99.90;;;;;;5094942;28;20189;-68
2022/07/19 05:12:10;;;;;;;8.63;6.83;;;15.50;99.90;;;;;;5094715;28;20243;-74
2022/07/19 05:14:36;;;;;;;7.60;6.00;;;15.60;99.90;;;;;;5095229;28;20419;-67
2022/07/19 05:17:02;;;;;;;10.03;7.40;;;15.60;99.90;;;;;;5095141;28;20410;-76
2022/07/19 05:19:28;;;;;;;8.80;6.43;;;15.70;99.90;;;;;;5095253;28;20646;-68
2022/07/19 05:21:53;;;;;;;12.87;7.17;;;15.70;99.90;;;;;;5095148;28;20400;-76
2022/07/19 05:24:19;;;;;;;13.83;8.73;;;15.80;99.90;;;;;;5093310;28;20729;-68
2022/07/19 05:26:45;;;;;;;12.27;8.30;;;15.90;99.90;;;;;;5094080;28;20182;-68
2022/07/19 05:29:11;;;;;;;11.47;9.10;;;15.90;99.90;;;;;;5094562;28;20177;-77
2022/07/19 05:31:37;;;;;;;11.07;6.60;;;16.10;99.90;;;;;;5095041;28;20162;-69
2022/07/19 05:34:03;;;;;;;14.00;7.47;;;16.20;99.90;;;;;;5092923;28;20443;-69
2022/07/19 05:36:29;;;;;;;9.80;7.47;;;16.40;99.90;;;;;;5095142;28;20168;-76
2022/07/19 05:38:55;;;;;;;15.60;7.70;;;16.50;99.90;;;;;;5093828;28;20166;-76
2022/07/19 05:41:24;;;;;;;10.63;6.20;;;16.70;99.90;;;;;;5094682;28;20223;-75
2022/07/19 05:43:51;;;;;;;8.97;7.17;;;16.70;99.90;;;;;;5093933;28;20420;-69
2022/07/19 05:46:17;;;;;;;7.17;6.47;;;16.80;99.90;;;;;;5094673;28;20395;-76
2022/07/19 05:48:42;;;;;;;7.73;5.57;;;16.90;99.90;;;;;;5094251;28;20873;-69
2022/07/19 05:51:08;;;;;;;12.30;5.50;;;16.90;99.90;;;;;;5093353;28;20184;-69
2022/07/19 05:53:36;;;;;;;9.37;6.10;;;16.90;99.90;;;;;;5093832;28;20416;-69
2022/07/19 05:56:02;;;;;;;10.50;6.30;;;16.90;99.90;;;;;;5094364;28;20641;-75
2022/07/19 05:58:28;;;;;;;10.37;6.40;;;16.90;99.90;;;;;;5094433;28;20416;-69
2022/07/19 06:03:38;;;;;;;7.53;5.83;;;17.10;99.90;;;;;;5093883;28;20284;-69
2022/07/19 06:06:04;;;;;;;7.93;5.80;;;17.20;99.90;;;;;;5093376;28;20486;-74
2022/07/19 06:08:30;;;;;;;7.33;5.80;;;17.30;99.90;;;;;;5094334;28;20169;-69
2022/07/19 06:10:56;;;;;;;10.07;6.63;;;17.40;99.90;;;;;;5094177;28;20918;-75
2022/07/19 06:13:22;;;;;;;6.87;5.10;;;17.50;99.90;;;;;;5093639;28;20174;-69
2022/07/19 06:15:47;;;;;;;9.43;6.20;;;17.60;99.90;;;;;;5094148;28;20172;-76
2022/07/19 06:18:13;;;;;;;10.03;6.47;;;17.70;99.90;;;;;;5094188;28;20403;-70
2022/07/19 06:20:39;;;;;;;8.03;5.63;;;17.80;99.90;;;;;;5094146;28;20197;-69
2022/07/19 06:23:04;;;;;;;9.17;5.70;;;17.90;99.90;;;;;;5093477;28;20630;-77
2022/07/19 06:25:30;;;;;;;8.00;6.10;;;18.20;99.90;;;;;;5093534;28;20284;-69
2022/07/19 06:27:56;;;;;;;9.33;5.77;;;18.40;99.90;;;;;;5094026;28;20207;-70
2022/07/19 06:30:21;;;;;;;9.47;5.70;;;18.70;99.90;;;;;;5092907;28;20219;-69
2022/07/19 06:32:47;;;;;;;8.90;5.43;;;18.90;99.90;;;;;;5093274;28;20209;-76
2022/07/19 06:35:13;;;;;;;7.50;5.50;;;19.10;99.90;;;;;;5093831;28;20239;-76
2022/07/19 06:37:38;;;;;;;8.30;5.53;;;19.20;99.90;;;;;;5092774;28;20173;-78
2022/07/19 06:40:05;;;;;;;6.50;4.93;;;19.40;99.90;;;;;;5093848;28;20247;-70
2022/07/19 06:42:31;;;;;;;6.50;5.80;;;19.50;99.90;;;;;;5092950;28;20568;-78
2022/07/19 06:44:58;;;;;;;7.60;5.07;;;19.70;99.90;;;;;;5093307;28;20407;-70
2022/07/19 06:47:24;;;;;;;12.13;6.10;;;19.80;99.90;;;;;;5093659;28;20402;-77
2022/07/19 06:49:50;;;;;;;6.90;5.37;;;20.00;99.90;;;;;;5093745;28;20403;-77
2022/07/19 06:52:15;;;;;;;6.20;5.47;;;20.20;99.90;;;;;;5092869;28;20637;-70
2022/07/19 06:54:41;;;;;;;6.73;5.20;;;20.40;99.90;;;;;;5093422;28;20193;-77
2022/07/19 06:57:08;;;;;;;5.57;5.07;;;20.60;99.90;;;;;;5092214;28;20248;-77
2022/07/19 06:59:34;;;;;;;7.00;4.27;;;20.70;99.90;;;;;;5093583;28;20196;-77
2022/07/19 07:01:59;;;;;;;10.53;5.47;;;20.80;99.90;;;;;;5091670;28;20419;-70
2022/07/19 07:04:25;;;;;;;9.30;5.83;;;21.00;99.90;;;;;;5092904;28;20208;-70
2022/07/19 07:06:50;;;;;;;7.90;4.87;;;21.10;99.90;;;;;;5093534;28;20169;-70
2022/07/19 07:09:16;;;;;;;4.60;4.10;;;21.30;99.90;;;;;;5092413;28;20169;-70
2022/07/19 07:11:42;;;;;;;8.47;4.93;;;21.40;97.70;;;;;;5093410;28;20181;-71
2022/07/19 07:14:08;;;;;;;10.50;4.87;;;21.60;96.40;;;;;;5092701;28;20191;-77
2022/07/19 07:16:34;;;;;;;5.37;4.43;;;21.70;96.40;;;;;;5092468;28;20260;-71
2022/07/19 07:18:59;;;;;;;8.40;5.17;;;21.80;96.40;;;;;;5095371;28;20506;-70
2022/07/19 07:21:25;;;;;;;6.73;5.37;;;22.00;92.60;;;;;;5096860;28;20650;-71
2022/07/19 07:23:51;;;;;;;7.70;4.60;;;22.10;89.80;;;;;;5096768;28;20197;-78
2022/07/19 07:26:16;;;;;;;5.87;4.47;;;22.20;80.70;;;;;;5097521;28;20157;-71
2022/07/19 07:28:42;;;;;;;5.60;4.67;;;22.30;46.40;;;;;;5096089;28;20180;-71
2022/07/19 07:31:08;;;;;;;7.70;4.37;;;22.50;45.10;;;;;;5096059;28;20169;-78
2022/07/19 07:33:33;;;;;;;6.90;4.80;;;22.50;39.40;;;;;;5096539;28;20231;-71
2022/07/19 07:35:59;;;;;;;4.97;4.40;;;22.60;47.10;;;;;;5097304;28;20263;-71
2022/07/19 07:38:25;;;;;;;4.90;3.60;;;22.70;27.20;;;;;;5096059;28;20241;-71
2022/07/19 07:40:50;;;;;;;9.57;4.83;;;22.80;22.30;;;;;;5096642;28;20662;-70
2022/07/19 07:43:16;;;;;;;7.63;5.20;;;22.90;11.70;;;;;;5096256;28;20170;-71
2022/07/19 07:45:42;;;;;;;7.53;5.03;;;23.00;1.00;;;;;;5095652;28;20599;-71
2022/07/19 07:48:08;;;;;;;7.83;4.30;;;23.10;1.00;;;;;;5097123;28;20212;-77
2022/07/19 07:50:33;;;;;;;6.37;4.67;;;23.20;1.00;;;;;;5096869;28;20407;-78
2022/07/19 07:52:59;;;;;;;9.00;5.00;;;23.30;1.00;;;;;;5096157;28;20165;-69
2022/07/19 07:55:25;;;;;;;6.00;5.27;;;23.40;1.00;;;;;;5096734;28;20186;-78
2022/07/19 07:57:51;;;;;;;6.27;5.17;;;23.50;1.00;;;;;;5096469;28;20194;-70
2022/07/19 08:00:16;;;;;;;6.80;5.20;;;23.60;1.00;;;;;;5096661;28;20291;-78
2022/07/19 08:02:45;;;;;;;5.93;5.13;;;23.70;1.00;;;;;;5096132;28;20165;-70
2022/07/19 08:05:11;;;;;;;7.70;4.93;;;23.80;1.00;;;;;;5095050;28;20554;-72
2022/07/19 08:07:38;;;;;;;7.47;6.37;;;23.90;1.00;;;;;;5096804;28;20488;-70
2022/07/19 08:10:07;;;;;;;6.77;5.17;;;24.00;1.00;;;;;;5096216;28;20431;-70
2022/07/19 08:12:33;;;;;;;6.63;5.27;;;24.10;1.00;;;;;;5093340;28;20420;-70
2022/07/19 08:14:59;;;;;;;5.90;5.30;;;24.20;1.00;;;;;;5094762;28;20919;-77
2022/07/19 08:17:25;;;;;;;7.87;4.43;;;24.30;1.00;;;;;;5095333;28;20435;-70
2022/07/19 08:19:50;;;;;;;6.40;4.20;;;24.40;1.00;;;;;;5095247;28;20887;-70
2022/07/19 08:22:18;;;;;;;7.33;4.67;;;24.40;1.00;;;;;;5094736;28;20180;-71
2022/07/19 08:24:44;;;;;;;4.37;3.97;;;24.50;1.00;;;;;;5095071;28;20185;-71
2022/07/19 08:27:10;;;;;;;6.03;5.33;;;24.70;1.00;;;;;;5095108;28;20449;-73
2022/07/19 08:29:36;;;;;;;7.00;4.47;;;24.70;1.00;;;;;;5094708;28;20808;-70
2022/07/19 08:32:02;;;;;;;6.30;4.90;;;24.80;1.00;;;;;;5094919;28;20618;-70
2022/07/19 08:34:28;;;;;;;5.23;4.70;;;25.00;1.00;;;;;;5092919;28;20431;-70
2022/07/19 08:36:54;;;;;;;5.60;4.43;;;25.10;1.00;;;;;;5095080;28;20456;-78
2022/07/19 08:39:19;;;;;;;6.87;4.40;;;25.20;1.00;;;;;;5093722;28;20177;-71
2022/07/19 08:41:46;;;;;;;5.93;4.90;;;25.10;1.00;;;;;;5094687;28;20170;-78
2022/07/19 08:44:13;;;;;;;5.80;4.93;;;25.20;1.00;;;;;;5094139;28;20230;-78
2022/07/19 08:46:41;;;;;;;5.60;4.93;;;25.30;1.00;;;;;;5093534;28;20419;-76
2022/07/19 08:49:08;;;;;;;4.83;4.33;;;25.50;1.00;;;;;;5094654;28;20784;-71
2022/07/19 08:51:34;;;;;;;6.63;4.87;;;25.50;1.00;;;;;;5094328;28;20416;-78
2022/07/19 08:53:59;;;;;;;6.20;4.27;;;25.70;1.00;;;;;;5093970;28;20936;-78
2022/07/19 08:59:09;;;;;;;6.43;4.13;;;25.90;1.00;;;;;;5094773;28;20222;-78
2022/07/19 09:01:36;;;;;;;5.30;3.97;;;26.00;1.00;;;;;;5094316;28;21007;-71
2022/07/19 09:04:20;;;;;;;5.97;5.13;;;26.20;1.00;;;;;;5093701;28;20554;-71
2022/07/19 09:06:51;;;;;;;6.77;3.97;;;26.40;1.00;;;;;;5094417;28;20901;-78
2022/07/19 09:12:02;;;;;;;5.00;4.07;;;26.50;1.00;;;;;;5070814;28;20604;-73
2022/07/19 09:14:30;;;;;;;7.33;4.77;;;26.90;1.00;;;;;;5070282;28;20466;-71
2022/07/19 09:17:28;;;;;;;7.43;4.13;;;27.00;1.00;;;;;;5070918;28;20389;-78
2022/07/19 09:19:53;;;;;;;5.13;4.13;;;27.20;1.00;;;;;;5070297;28;20495;-71
2022/07/19 09:22:20;;;;;;;5.00;4.13;;;27.40;1.00;;;;;;5068583;28;20401;-71
2022/07/19 09:24:49;;;;;;;6.53;3.97;;;27.60;1.00;;;;;;5070629;28;20269;-78
2022/07/19 09:27:19;;;;;;;4.30;3.90;;;27.80;1.00;;;;;;5070636;28;20384;-78
2022/07/19 09:29:47;;;;;;;10.47;4.50;;;27.90;1.00;;;;;;5069927;28;20467;-78
2022/07/19 09:32:18;;;;;;;4.97;4.30;;;28.00;1.00;;;;;;5068760;28;20396;-70
2022/07/19 09:34:56;;;;;;;4.27;3.47;;;28.20;1.00;;;;;;5070336;28;20421;-71
2022/07/19 09:37:28;;;;;;;5.00;4.17;;;28.40;1.00;;;;;;5070347;28;20438;-78
2022/07/19 09:39:56;;;;;;;4.07;3.27;;;28.40;1.00;;;;;;5070125;28;20403;-79
2022/07/19 09:42:24;;;;;;;3.87;3.53;;;28.50;1.00;;;;;;5069659;28;20405;-76
2022/07/19 09:45:05;;;;;;;5.00;4.50;;;28.60;1.00;;;;;;5070190;28;21001;-76
2022/07/19 09:47:33;;;;;;;4.47;3.87;;;28.90;1.00;;;;;;5069645;28;20388;-76
2022/07/19 09:50:00;;;;;;;4.50;4.03;;;28.90;1.00;;;;;;5069899;28;20436;-69
2022/07/19 09:52:26;;;;;;;5.30;3.30;;;29.00;1.00;;;;;;5069533;28;20397;-70
2022/07/19 09:54:52;;;;;;;7.20;3.87;;;29.20;1.00;;;;;;5068633;28;20793;-70
2022/07/19 09:57:24;;;;;;;4.50;3.67;;;29.60;1.00;;;;;;5070030;28;20207;-76
2022/07/19 09:59:54;;;;;;;3.93;3.63;;;30.00;1.00;;;;;;5068473;28;20420;-69
2022/07/19 10:02:22;;;;;;;4.73;3.50;;;30.30;1.00;;;;;;5069060;28;20458;-77
2022/07/19 10:04:49;;;;;;;3.70;3.40;;;30.40;1.00;;;;;;5069238;28;20420;-76
2022/07/19 10:07:16;;;;;;;4.93;4.00;;;30.60;1.00;;;;;;5069784;28;20980;-69
2022/07/19 10:09:44;;;;;;;5.67;4.10;;;30.70;1.00;;;;;;5069401;28;20488;-69
2022/07/19 10:12:11;;;;;;;4.63;3.80;;;30.90;1.00;;;;;;5067426;28;20631;-75
2022/07/19 10:14:38;;;;;;;3.90;3.00;;;31.30;1.00;;;;;;5068209;28;20779;-77
2022/07/19 10:17:34;;;;;;;6.30;3.87;;;31.50;1.00;;;;;;5068477;28;20405;-76
2022/07/19 10:20:01;;;;;;;4.20;3.80;;;31.60;1.00;;;;;;5069512;28;20781;-69
2022/07/19 10:22:27;;;;;;;3.67;3.37;;;31.90;1.00;;;;;;5060451;28;21020;-77
2022/07/19 10:25:14;;;;;;;4.60;4.20;;;31.90;1.00;;;;;;5054317;28;20461;-69
2022/07/19 10:27:46;;;;;;;6.53;3.50;;;32.10;1.00;;;;;;5056030;28;21017;-76
2022/07/19 10:30:11;;;;;;;5.40;4.40;;;32.20;1.00;;;;;;5056045;28;20433;-70
2022/07/19 10:32:39;;;;;;;5.90;4.53;;;32.30;1.00;;;;;;5055375;28;20402;-76
2022/07/19 10:35:15;;;;;;;7.07;3.60;;;32.60;1.00;;;;;;5055903;28;20209;-76
2022/07/19 10:37:43;;;;;;;4.23;3.87;;;32.80;1.00;;;;;;5054551;28;20427;-77
2022/07/19 10:40:09;;;;;;;3.70;3.30;;;33.10;1.00;;;;;;5055896;28;20400;-70
2022/07/19 10:42:35;;;;;;;4.63;3.77;;;33.20;1.00;;;;;;5053840;28;20405;-77
2022/07/19 10:45:10;;;;;;;6.00;3.83;;;33.20;1.00;;;;;;5055583;28;20201;-77
2022/07/19 10:47:38;;;;;;;3.80;3.30;;;33.20;1.00;;;;;;5055727;28;20167;-75
2022/07/19 10:50:06;;;;;;;4.73;3.80;;;33.40;1.00;;;;;;5054361;28;20445;-76
2022/07/19 10:52:38;;;;;;;5.70;3.73;;;33.60;1.00;;;;;;5054808;28;20408;-77
2022/07/19 10:55:24;;;;;;;6.10;3.83;;;33.80;1.00;;;;;;5055585;28;20431;-67
2022/07/19 10:58:06;;;;;;;3.73;3.40;;;34.20;1.00;;;;;;5055420;28;20466;-75
2022/07/19 11:00:40;;;;;;;4.30;3.90;;;34.40;1.00;;;;;;5054914;28;20397;-68
2022/07/19 11:03:25;;;;;;;3.50;3.17;;;34.50;1.00;;;;;;5053495;28;20466;-68
2022/07/19 11:05:52;;;;;;;4.70;4.30;;;34.70;1.00;;;;;;5055493;28;20530;-68
2022/07/19 11:08:29;;;;;;;4.50;4.10;;;34.90;1.00;;;;;;5055320;28;20886;-75
2022/07/19 11:11:06;;;;;;;5.90;3.27;;;34.90;1.00;;;;;;5055058;28;20551;-68
2022/07/19 11:13:32;;;;;;;3.47;3.17;;;35.00;1.00;;;;;;5053215;28;20957;-67
2022/07/19 11:15:58;;;;;;;4.27;3.83;;;35.10;1.00;;;;;;5054699;28;20446;-74
2022/07/19 11:18:24;;;;;;;4.23;3.60;;;35.20;1.00;;;;;;5055137;28;20817;-73
2022/07/19 11:20:49;;;;;;;5.23;4.63;;;35.30;1.00;;;;;;5055198;28;20661;-73
2022/07/19 11:23:20;;;;;;;5.30;3.70;;;35.50;1.00;;;;;;5054463;28;20216;-74
2022/07/19 11:25:46;;;;;;;4.90;4.50;;;35.80;1.00;;;;;;5055067;28;20249;-68
2022/07/19 11:28:25;;;;;;;5.37;4.40;;;36.20;1.00;;;;;;5055282;28;20454;-68
2022/07/19 11:30:51;;;;;;;4.53;3.97;;;36.50;1.00;;;;;;5054829;28;20531;-68
2022/07/19 11:33:19;;;;;;;3.73;3.40;;;36.80;1.00;;;;;;5052926;28;20399;-74
2022/07/19 11:35:58;;;;;;;4.83;3.83;;;37.10;1.00;;;;;;5054644;28;20885;-68
2022/07/19 11:38:40;;;;;;;4.70;4.30;;;37.10;1.00;;;;;;5054795;28;20419;-74
2022/07/19 11:41:18;;;;;;;3.80;3.50;;;37.00;1.00;;;;;;5054705;28;20458;-74
2022/07/19 11:44:04;;;;;;;3.97;3.53;;;36.70;1.00;;;;;;5053947;28;20421;-73
2022/07/19 11:46:39;;;;;;;4.67;4.20;;;36.80;1.00;;;;;;5053202;28;20925;-68
2022/07/19 11:49:07;;;;;;;8.80;3.90;;;36.80;1.00;;;;;;5054516;28;20436;-74
2022/07/19 11:51:34;;;;;;;4.10;3.70;;;37.00;1.00;;;;;;5054412;28;20968;-71
2022/07/19 11:54:01;;;;;;;3.83;3.53;;;37.30;1.00;;;;;;5053441;28;20481;-68
2022/07/19 11:56:29;;;;;;;4.50;4.10;;;37.50;99.90;;;;;;5054141;28;20752;-74
2022/07/19 11:58:58;;;;;;;4.27;3.90;;;37.70;99.90;;;;;;5054265;28;20401;-74
2022/07/19 12:01:25;;;;;;;3.60;3.40;;;38.20;1.00;;;;;;5054292;28;20397;-68
2022/07/19 12:04:03;;;;;;;4.30;3.87;;;38.50;1.00;;;;;;5052205;28;20428;-74
2022/07/19 12:06:46;;;;;;;3.73;3.43;;;38.40;1.00;;;;;;5054213;28;20924;-69
2022/07/19 12:09:16;;;;;;;4.60;3.90;;;38.60;1.00;;;;;;5054029;28;20433;-69
2022/07/19 12:11:47;;;;;;;4.27;3.87;;;38.90;1.00;;;;;;5053757;28;20506;-68
2022/07/19 12:14:26;;;;;;;4.07;3.47;;;39.20;1.00;;;;;;5053262;28;20427;-69
2022/07/19 12:17:21;;;;;;;5.20;3.90;;;39.30;1.00;;;;;;5054008;28;20392;-69
2022/07/19 12:19:53;;;;;;;4.23;3.73;;;39.40;1.00;;;;;;5053979;28;20405;-68
2022/07/19 12:22:35;;;;;;;3.63;3.33;;;39.60;1.00;;;;;;5053309;28;20159;-70
2022/07/19 12:25:03;;;;;;;6.77;4.17;;;39.30;1.00;;;;;;5053950;28;20610;-70
2022/07/19 12:27:30;;;;;;;4.00;2.67;;;39.00;1.00;;;;;;5053758;28;20245;-75
2022/07/19 12:29:58;;;;;;;3.67;3.47;;;39.10;1.00;;;;;;5053536;28;20185;-71
2022/07/19 12:32:31;;;;;;;4.17;3.67;;;39.30;1.00;;;;;;5053049;28;20231;-67
2022/07/19 12:35:05;;;;;;;6.67;4.10;;;39.50;1.00;;;;;;5053614;28;20193;-69
2022/07/19 12:37:32;;;;;;;3.67;3.37;;;39.30;1.00;;;;;;5053660;28;20401;-69
2022/07/19 12:40:15;;;;;;;4.57;4.00;;;39.50;1.00;;;;;;5053715;28;20399;-74
2022/07/19 12:42:59;;;;;;;4.20;3.43;;;39.50;1.00;;;;;;5052938;28;20417;-75
2022/07/19 12:45:27;;;;;;;3.33;3.03;;;39.30;1.00;;;;;;5053192;28;20444;-75
2022/07/19 12:47:53;;;;;;;4.00;3.60;;;39.20;1.00;;;;;;5052324;28;20817;-75
2022/07/19 12:50:40;;;;;;;3.90;3.60;;;39.20;1.00;;;;;;5052984;28;20456;-75
2022/07/19 12:53:09;;;;;;;10.47;6.60;;;39.00;1.00;;;;;;5052539;28;20182;-75
2022/07/19 12:55:36;;;;;;;4.30;3.90;;;38.80;1.00;;;;;;5053317;28;20466;-70
2022/07/19 12:58:04;;;;;;;4.57;4.10;;;38.70;1.00;;;;;;5053555;28;20389;-69
2022/07/19 13:00:31;;;;;;;5.10;3.40;;;38.50;1.00;;;;;;5053485;28;20496;-69